Time;durP1;ratioP1;P1;durP2;ratioP2;P2;SDS_P1;SDS_P2;PMS_P1;PMS_P2;Temp;Humidity;BMP_temperature;BMP_pressure;BME280_temperature;BME280_humidity;BME280_pressure;Samples;Min_cycle;Max_cycle;Signal;HPM_P1;HPM_P2
2023/05/13 00:00:09;;;;;;;4.20;3.30;;;14.70;99.90;;;;;;5034489;28;20509;-70
2023/05/13 00:02:35;;;;;;;5.67;4.40;;;14.70;99.90;;;;;;5033807;28;20217;-70
2023/05/13 00:05:00;;;;;;;3.67;3.37;;;14.70;99.90;;;;;;5033765;28;20417;-69
2023/05/13 00:07:27;;;;;;;3.70;3.40;;;14.70;99.90;;;;;;5034162;28;20187;-70
2023/05/13 00:09:52;;;;;;;3.93;3.63;;;14.70;99.90;;;;;;5034119;28;20344;-70
2023/05/13 00:12:18;;;;;;;3.33;3.10;;;14.70;99.90;;;;;;5033825;28;20533;-70
2023/05/13 00:14:43;;;;;;;5.90;4.67;;;14.60;99.90;;;;;;5033721;28;20174;-70
2023/05/13 00:17:09;;;;;;;3.90;3.50;;;14.60;99.90;;;;;;5034266;28;20180;-70
2023/05/13 00:19:35;;;;;;;3.70;3.30;;;14.60;99.90;;;;;;5033763;28;20183;-70
2023/05/13 00:22:00;;;;;;;5.73;4.40;;;14.50;99.90;;;;;;5033210;28;20175;-70
2023/05/13 00:24:26;;;;;;;4.00;3.60;;;14.50;99.90;;;;;;5033637;28;20687;-69
2023/05/13 00:26:52;;;;;;;3.70;3.40;;;14.40;99.90;;;;;;5033881;28;20167;-70
2023/05/13 00:29:18;;;;;;;4.30;3.90;;;14.50;99.90;;;;;;5033503;28;20481;-69
2023/05/13 00:31:43;;;;;;;4.03;3.73;;;14.50;99.90;;;;;;5033280;28;20412;-70
2023/05/13 00:34:09;;;;;;;3.50;3.13;;;14.50;99.90;;;;;;5033270;28;20198;-70
2023/05/13 00:36:35;;;;;;;3.50;3.20;;;14.50;99.90;;;;;;5032792;28;20190;-70
2023/05/13 00:39:00;;;;;;;4.67;4.27;;;14.50;99.90;;;;;;5033599;28;20178;-69
2023/05/13 00:41:26;;;;;;;4.33;3.63;;;14.50;99.90;;;;;;5033372;28;20199;-69
2023/05/13 00:43:57;;;;;;;3.90;3.60;;;14.60;99.90;;;;;;5033125;28;20223;-70
2023/05/13 00:46:24;;;;;;;4.63;4.00;;;14.60;99.90;;;;;;5032013;28;20179;-69
2023/05/13 00:48:51;;;;;;;4.00;3.60;;;14.50;99.90;;;;;;5030679;28;20959;-70
2023/05/13 00:51:17;;;;;;;3.50;3.20;;;14.60;99.90;;;;;;5032379;28;20430;-70
2023/05/13 00:53:44;;;;;;;3.60;3.30;;;14.60;99.90;;;;;;5033121;28;20433;-70
2023/05/13 00:56:09;;;;;;;4.03;3.73;;;14.40;99.90;;;;;;5033531;28;20178;-70
2023/05/13 00:58:35;;;;;;;4.30;4.00;;;14.10;99.90;;;;;;5033119;28;20419;-70
2023/05/13 01:01:37;;;;;;;4.10;3.80;;;14.20;99.90;;;;;;5033261;28;20169;-70
2023/05/13 01:04:11;;;;;;;4.23;3.90;;;14.00;99.90;;;;;;5033285;28;20213;-70
2023/05/13 01:06:55;;;;;;;3.43;3.13;;;13.90;99.90;;;;;;5033312;28;20873;-70
2023/05/13 01:09:46;;;;;;;4.67;3.67;;;13.80;99.90;;;;;;5033724;28;20794;-70
2023/05/13 01:12:20;;;;;;;4.63;4.17;;;13.60;99.90;;;;;;5033183;28;20429;-70
2023/05/13 01:14:58;;;;;;;6.30;4.00;;;13.50;99.90;;;;;;5033076;28;20483;-70
2023/05/13 01:17:31;;;;;;;3.60;3.40;;;13.30;99.90;;;;;;5033099;28;20582;-70
2023/05/13 01:19:59;;;;;;;4.40;4.00;;;13.40;99.90;;;;;;5026229;28;20892;-69
2023/05/13 01:22:24;;;;;;;4.40;4.00;;;13.40;99.90;;;;;;5013003;28;20433;-70
2023/05/13 01:24:50;;;;;;;5.20;4.80;;;13.40;99.90;;;;;;5013253;28;20416;-69
2023/05/13 01:27:16;;;;;;;4.50;4.10;;;13.30;99.90;;;;;;5012996;28;20179;-70
2023/05/13 01:29:43;;;;;;;4.70;4.30;;;13.40;99.90;;;;;;5012864;28;20224;-69
2023/05/13 01:32:10;;;;;;;4.17;3.80;;;13.20;99.90;;;;;;5012993;28;20432;-70
2023/05/13 01:34:37;;;;;;;4.63;4.20;;;13.10;99.90;;;;;;5013265;28;20996;-70
2023/05/13 01:37:03;;;;;;;4.67;4.27;;;13.00;99.90;;;;;;5013022;28;20413;-69
2023/05/13 01:39:30;;;;;;;4.80;4.40;;;12.90;99.90;;;;;;5013269;28;20443;-70
2023/05/13 01:41:56;;;;;;;4.93;4.53;;;12.90;99.90;;;;;;5013148;28;20825;-70
2023/05/13 01:44:22;;;;;;;4.97;4.53;;;12.70;99.90;;;;;;5013176;28;20502;-68
2023/05/13 01:46:49;;;;;;;4.27;3.90;;;12.70;99.90;;;;;;5025697;28;20206;-70
2023/05/13 01:49:15;;;;;;;4.30;4.00;;;12.90;99.90;;;;;;5032089;28;20198;-69
2023/05/13 01:51:40;;;;;;;4.47;4.07;;;12.80;99.90;;;;;;5032418;28;20969;-70
2023/05/13 01:54:06;;;;;;;4.73;4.20;;;12.80;99.90;;;;;;5032493;28;20421;-69
2023/05/13 01:56:32;;;;;;;4.53;4.13;;;12.50;99.90;;;;;;5033042;28;20632;-70
2023/05/13 01:58:57;;;;;;;4.63;4.23;;;12.40;99.90;;;;;;5033084;28;20535;-70
2023/05/13 02:01:23;;;;;;;4.37;3.97;;;12.30;99.90;;;;;;5032806;28;20225;-69
2023/05/13 02:03:49;;;;;;;4.80;4.30;;;12.40;99.90;;;;;;5032512;28;20212;-69
2023/05/13 02:06:14;;;;;;;3.97;3.57;;;12.50;99.90;;;;;;5031960;28;20178;-70
2023/05/13 02:08:40;;;;;;;5.13;4.73;;;12.50;99.90;;;;;;5033519;28;20208;-70
2023/05/13 02:11:05;;;;;;;4.40;3.73;;;12.40;99.90;;;;;;5036428;28;20255;-70
2023/05/13 02:13:31;;;;;;;3.97;3.67;;;12.40;99.90;;;;;;5036214;28;20562;-69
2023/05/13 02:15:57;;;;;;;4.80;4.40;;;12.60;99.90;;;;;;5036245;28;20175;-70
2023/05/13 02:18:22;;;;;;;4.43;4.03;;;12.70;99.90;;;;;;5035967;28;20167;-69
2023/05/13 02:20:48;;;;;;;4.57;4.27;;;12.70;99.90;;;;;;5035396;28;20202;-69
2023/05/13 02:23:14;;;;;;;4.03;3.73;;;12.90;99.90;;;;;;5035932;28;20318;-70
2023/05/13 02:25:41;;;;;;;4.37;3.70;;;13.00;99.90;;;;;;5035972;28;20168;-70
2023/05/13 02:28:06;;;;;;;4.57;4.17;;;13.10;99.90;;;;;;5035912;28;20807;-70
2023/05/13 02:30:32;;;;;;;4.50;4.10;;;13.30;99.90;;;;;;5017905;28;20456;-69
2023/05/13 02:32:59;;;;;;;4.57;3.60;;;13.30;99.90;;;;;;5035563;28;20189;-70
2023/05/13 02:35:28;;;;;;;3.50;3.30;;;13.10;99.90;;;;;;5035352;28;20546;-70
2023/05/13 02:37:54;;;;;;;4.60;4.20;;;12.60;99.90;;;;;;5035465;28;20412;-69
2023/05/13 02:40:19;;;;;;;4.27;3.97;;;12.50;99.90;;;;;;5032127;28;20895;-69
2023/05/13 02:42:45;;;;;;;4.53;4.17;;;12.50;99.90;;;;;;5035562;28;20250;-70
2023/05/13 02:45:11;;;;;;;3.83;3.53;;;12.40;99.90;;;;;;5035688;28;20196;-69
2023/05/13 02:47:38;;;;;;;4.37;4.07;;;12.60;99.90;;;;;;5035376;28;20256;-69
2023/05/13 02:50:05;;;;;;;3.87;3.57;;;12.60;99.90;;;;;;5034959;28;20207;-69
2023/05/13 02:52:30;;;;;;;4.20;3.80;;;12.70;99.90;;;;;;5035558;28;20428;-69
2023/05/13 02:54:56;;;;;;;4.20;3.90;;;12.90;99.90;;;;;;5035431;28;20410;-69
2023/05/13 02:57:21;;;;;;;3.90;3.60;;;13.00;99.90;;;;;;5035415;28;20171;-69
2023/05/13 02:59:47;;;;;;;4.57;4.17;;;13.10;99.90;;;;;;5035045;28;20175;-69
2023/05/13 03:02:12;;;;;;;5.40;4.50;;;12.90;99.90;;;;;;5034717;28;20207;-69
2023/05/13 03:04:40;;;;;;;4.40;4.00;;;12.70;99.90;;;;;;5035039;28;20152;-69
2023/05/13 03:07:05;;;;;;;4.23;3.83;;;12.70;99.90;;;;;;5034878;28;20304;-69
2023/05/13 03:09:31;;;;;;;3.60;3.30;;;12.70;99.90;;;;;;5035176;28;20552;-69
2023/05/13 03:11:57;;;;;;;4.17;3.77;;;12.60;99.90;;;;;;5034895;28;20167;-69
2023/05/13 03:14:22;;;;;;;4.10;3.70;;;12.50;99.90;;;;;;5035134;28;20168;-69
2023/05/13 03:16:49;;;;;;;4.87;4.03;;;12.60;99.90;;;;;;5035237;28;20417;-69
2023/05/13 03:19:14;;;;;;;4.10;3.80;;;12.70;99.90;;;;;;5033362;28;20202;-68
2023/05/13 03:21:40;;;;;;;4.60;4.20;;;12.70;99.90;;;;;;5015242;28;20417;-69
2023/05/13 03:24:05;;;;;;;3.43;3.03;;;12.80;99.90;;;;;;5015263;28;20200;-70
2023/05/13 03:26:31;;;;;;;4.10;3.70;;;12.70;99.90;;;;;;5015140;28;20235;-70
2023/05/13 03:28:57;;;;;;;4.23;3.83;;;12.60;99.90;;;;;;5015402;28;20208;-70
2023/05/13 03:31:22;;;;;;;4.23;3.57;;;12.40;99.90;;;;;;5015363;28;20639;-68
2023/05/13 03:33:48;;;;;;;4.30;3.90;;;12.30;99.90;;;;;;5014759;28;20191;-70
2023/05/13 03:36:13;;;;;;;4.83;4.43;;;12.30;99.90;;;;;;5014242;28;20168;-70
2023/05/13 03:38:39;;;;;;;3.87;3.47;;;12.20;99.90;;;;;;5014693;28;20533;-70
2023/05/13 03:41:05;;;;;;;3.87;3.20;;;12.30;99.90;;;;;;5015387;28;20165;-69
2023/05/13 03:43:30;;;;;;;3.80;3.50;;;12.20;99.90;;;;;;5014398;28;20204;-70
2023/05/13 03:45:56;;;;;;;4.77;3.80;;;12.30;99.90;;;;;;5022006;28;20237;-70
2023/05/13 03:48:21;;;;;;;4.83;4.10;;;12.30;99.90;;;;;;5034468;28;20173;-70
2023/05/13 03:50:47;;;;;;;4.00;3.60;;;12.50;99.90;;;;;;5033437;28;20657;-70
2023/05/13 03:53:12;;;;;;;3.40;3.20;;;12.50;99.90;;;;;;5033956;28;20676;-69
2023/05/13 03:55:38;;;;;;;4.07;3.77;;;12.50;99.90;;;;;;5034738;28;20530;-69
2023/05/13 03:58:14;;;;;;;4.00;3.60;;;12.60;99.90;;;;;;5034224;28;20687;-70
2023/05/13 04:00:41;;;;;;;5.70;3.87;;;12.70;99.90;;;;;;5034014;28;20176;-70
2023/05/13 04:03:06;;;;;;;3.87;3.33;;;12.70;99.90;;;;;;5033524;28;20458;-70
2023/05/13 04:05:32;;;;;;;3.27;3.07;;;12.90;99.90;;;;;;5033372;28;20416;-69
2023/05/13 04:07:58;;;;;;;4.70;4.00;;;12.90;99.90;;;;;;5033837;28;20203;-70
2023/05/13 04:10:23;;;;;;;3.50;3.20;;;12.70;99.90;;;;;;5033665;28;20195;-70
2023/05/13 04:12:49;;;;;;;3.83;3.53;;;12.80;99.90;;;;;;5033649;28;20208;-70
2023/05/13 04:15:14;;;;;;;3.83;3.50;;;12.90;99.90;;;;;;5056308;23;20227;-71
2023/05/13 04:17:40;;;;;;;5.23;3.40;;;12.80;99.90;;;;;;5033823;28;20159;-71
2023/05/13 04:20:06;;;;;;;3.80;3.43;;;12.70;99.90;;;;;;5033204;28;20201;-71
2023/05/13 04:22:34;;;;;;;3.90;3.60;;;12.60;99.90;;;;;;5033225;28;20255;-71
2023/05/13 04:24:59;;;;;;;4.07;3.77;;;12.50;99.90;;;;;;5033778;28;20433;-71
2023/05/13 04:27:25;;;;;;;4.13;3.83;;;12.30;99.90;;;;;;5033402;28;20399;-71
2023/05/13 04:29:50;;;;;;;4.30;3.93;;;12.40;99.90;;;;;;5033386;28;20225;-72
2023/05/13 04:32:20;;;;;;;3.50;3.20;;;12.40;99.90;;;;;;5031914;28;20634;-71
2023/05/13 04:34:47;;;;;;;3.97;3.67;;;12.40;99.90;;;;;;5033281;28;20734;-72
2023/05/13 04:37:12;;;;;;;5.23;4.70;;;12.30;99.90;;;;;;5032967;28;20397;-71
2023/05/13 04:39:38;;;;;;;4.33;4.03;;;12.20;99.90;;;;;;5032913;28;20846;-71
2023/05/13 04:42:04;;;;;;;5.30;4.43;;;12.30;99.90;;;;;;5033158;28;20166;-71
2023/05/13 04:44:31;;;;;;;4.00;3.70;;;12.40;99.90;;;;;;5033071;28;20187;-71
2023/05/13 04:46:56;;;;;;;3.90;3.60;;;12.40;99.90;;;;;;5033280;28;20816;-71
2023/05/13 04:49:22;;;;;;;5.17;4.17;;;12.60;99.90;;;;;;5033222;28;20542;-72
2023/05/13 04:51:47;;;;;;;5.00;4.13;;;12.80;99.90;;;;;;5032482;28;20584;-71
2023/05/13 04:54:13;;;;;;;6.10;3.63;;;12.90;99.90;;;;;;5033100;28;20185;-71
2023/05/13 04:56:38;;;;;;;8.03;4.13;;;13.00;99.90;;;;;;5031700;28;20561;-72
2023/05/13 04:59:04;;;;;;;5.40;4.30;;;13.10;99.90;;;;;;5032661;28;20179;-71
2023/05/13 05:01:29;;;;;;;4.20;3.77;;;13.10;99.90;;;;;;5032243;28;20183;-72
2023/05/13 05:03:57;;;;;;;3.27;3.07;;;13.10;99.90;;;;;;5033296;28;20217;-72
2023/05/13 05:06:23;;;;;;;4.03;3.67;;;13.00;99.90;;;;;;5032583;28;20257;-71
2023/05/13 05:08:48;;;;;;;4.80;4.27;;;13.00;99.90;;;;;;5032770;28;20532;-71
2023/05/13 05:11:14;;;;;;;4.10;3.80;;;13.10;99.90;;;;;;5033129;28;20167;-71
2023/05/13 05:13:39;;;;;;;3.93;3.63;;;12.90;99.90;;;;;;5015048;28;20618;-72
2023/05/13 05:16:05;;;;;;;5.90;3.83;;;12.90;99.90;;;;;;5033141;28;20159;-71
2023/05/13 05:18:31;;;;;;;7.60;4.50;;;12.40;99.90;;;;;;5015159;28;20180;-71
2023/05/13 05:20:56;;;;;;;3.77;3.47;;;12.60;99.90;;;;;;5032374;28;20419;-71
2023/05/13 05:23:22;;;;;;;6.00;3.77;;;12.70;99.90;;;;;;5032706;28;20251;-71
2023/05/13 05:25:48;;;;;;;4.13;3.83;;;12.30;99.90;;;;;;5032668;28;20271;-71
2023/05/13 05:28:13;;;;;;;4.00;3.70;;;12.50;99.90;;;;;;5032638;28;20161;-71
2023/05/13 05:30:39;;;;;;;3.90;3.60;;;12.60;99.90;;;;;;5032627;28;20188;-71
2023/05/13 05:33:06;;;;;;;3.67;3.37;;;12.80;99.90;;;;;;5032964;28;20167;-71
2023/05/13 05:35:32;;;;;;;4.90;4.20;;;12.90;99.90;;;;;;5014628;28;20212;-71
2023/05/13 05:37:58;;;;;;;4.00;3.70;;;12.80;99.90;;;;;;5032649;28;20402;-71
2023/05/13 05:40:24;;;;;;;4.47;4.07;;;12.50;99.90;;;;;;5032816;28;20457;-71
2023/05/13 05:42:49;;;;;;;4.27;3.87;;;12.70;99.90;;;;;;5032564;28;20399;-71
2023/05/13 05:45:15;;;;;;;4.23;3.83;;;12.90;99.90;;;;;;5035616;28;20191;-71
2023/05/13 05:47:40;;;;;;;4.47;4.00;;;13.10;99.90;;;;;;5036673;28;20177;-71
2023/05/13 05:50:06;;;;;;;3.60;3.30;;;13.10;99.90;;;;;;5036101;28;20216;-71
2023/05/13 05:52:32;;;;;;;3.57;3.27;;;13.30;99.90;;;;;;5035983;28;20166;-72
2023/05/13 05:54:57;;;;;;;5.07;4.23;;;13.30;99.90;;;;;;5023707;28;20442;-71
2023/05/13 05:57:23;;;;;;;4.80;4.30;;;13.10;99.90;;;;;;5016318;28;20161;-71
2023/05/13 05:59:49;;;;;;;4.40;4.00;;;12.90;99.90;;;;;;5016356;28;20165;-70
2023/05/13 06:02:15;;;;;;;4.87;4.47;;;12.60;99.90;;;;;;5016421;28;20223;-71
2023/05/13 06:04:41;;;;;;;3.90;3.60;;;12.40;99.90;;;;;;5016491;28;20816;-71
2023/05/13 06:07:07;;;;;;;5.93;5.43;;;12.60;99.90;;;;;;5015775;28;20185;-72
2023/05/13 06:09:33;;;;;;;4.33;3.93;;;12.60;99.90;;;;;;5016631;28;20189;-71
2023/05/13 06:11:58;;;;;;;4.67;4.27;;;12.60;99.90;;;;;;5016134;28;20425;-72
2023/05/13 06:14:24;;;;;;;5.63;4.20;;;12.70;99.90;;;;;;5016066;28;20241;-71
2023/05/13 06:16:49;;;;;;;4.90;4.50;;;12.90;99.90;;;;;;5016068;28;20205;-70
2023/05/13 06:19:15;;;;;;;4.30;3.90;;;12.90;99.90;;;;;;5017933;28;20232;-72
2023/05/13 06:21:41;;;;;;;4.20;3.90;;;12.90;99.90;;;;;;5035208;28;20226;-71
2023/05/13 06:24:08;;;;;;;4.80;4.00;;;12.90;99.90;;;;;;5035651;28;20188;-70
2023/05/13 06:26:33;;;;;;;4.40;4.10;;;12.90;99.90;;;;;;5035572;28;20511;-69
2023/05/13 06:28:59;;;;;;;5.10;4.60;;;13.00;99.90;;;;;;5035813;28;20451;-70
2023/05/13 06:31:25;;;;;;;5.33;4.80;;;12.40;99.90;;;;;;5035044;28;20164;-71
2023/05/13 06:33:51;;;;;;;5.43;4.20;;;12.50;99.90;;;;;;5035682;28;20518;-71
2023/05/13 06:36:16;;;;;;;4.70;4.30;;;12.50;99.90;;;;;;5035251;28;20579;-71
2023/05/13 06:38:42;;;;;;;6.63;5.20;;;12.80;99.90;;;;;;5035439;28;20203;-71
2023/05/13 06:41:07;;;;;;;4.60;4.20;;;13.00;99.90;;;;;;5035296;28;20641;-71
2023/05/13 06:43:33;;;;;;;5.23;4.73;;;13.30;99.90;;;;;;5035406;28;20640;-71
2023/05/13 06:45:59;;;;;;;7.30;4.40;;;13.40;99.90;;;;;;5035115;28;20188;-72
2023/05/13 06:48:25;;;;;;;6.10;4.80;;;13.50;99.90;;;;;;5031934;28;20174;-72
2023/05/13 06:50:51;;;;;;;4.80;4.30;;;13.20;99.90;;;;;;5034678;28;20967;-72
2023/05/13 06:53:16;;;;;;;6.00;4.70;;;13.00;99.90;;;;;;5035592;28;20420;-71
2023/05/13 06:55:42;;;;;;;5.53;4.90;;;13.10;99.90;;;;;;5034787;28;20184;-71
2023/05/13 06:58:08;;;;;;;5.10;4.60;;;13.10;99.90;;;;;;5035695;28;20160;-72
2023/05/13 07:00:39;;;;;;;4.97;4.57;;;13.30;99.90;;;;;;5035403;28;20239;-71
2023/05/13 07:03:05;;;;;;;5.30;4.50;;;13.10;99.90;;;;;;5035331;28;20766;-71
2023/05/13 07:05:31;;;;;;;5.57;4.90;;;13.00;99.90;;;;;;5033323;28;20437;-71
2023/05/13 07:07:57;;;;;;;5.90;4.60;;;12.90;99.90;;;;;;5034875;28;20468;-71
2023/05/13 07:10:23;;;;;;;7.80;4.40;;;13.00;99.90;;;;;;5034699;28;20445;-71
2023/05/13 07:12:48;;;;;;;4.53;4.13;;;13.30;99.90;;;;;;5017490;28;20697;-71
2023/05/13 07:15:15;;;;;;;5.30;4.80;;;13.10;99.90;;;;;;5034481;28;20213;-71
2023/05/13 07:17:41;;;;;;;5.70;4.60;;;13.30;99.90;;;;;;5034928;28;20206;-71
2023/05/13 07:20:09;;;;;;;7.53;5.73;;;13.70;99.90;;;;;;5034579;28;20471;-71
2023/05/13 07:22:34;;;;;;;5.20;4.27;;;13.60;99.90;;;;;;5034680;28;20263;-71
2023/05/13 07:25:00;;;;;;;4.93;4.53;;;13.80;99.90;;;;;;5034783;28;20515;-71
2023/05/13 07:27:26;;;;;;;5.23;4.70;;;13.70;99.90;;;;;;5034573;28;20623;-71
2023/05/13 07:29:51;;;;;;;5.37;4.97;;;13.40;99.90;;;;;;5034441;28;20585;-71
2023/05/13 07:32:17;;;;;;;5.67;5.17;;;13.70;99.90;;;;;;5034487;28;20169;-71
2023/05/13 07:34:43;;;;;;;5.30;4.83;;;13.90;99.90;;;;;;5034277;28;20187;-71
2023/05/13 07:37:08;;;;;;;5.10;4.70;;;14.00;99.90;;;;;;5034321;28;20701;-71
2023/05/13 07:39:34;;;;;;;7.13;5.70;;;14.10;99.90;;;;;;5034510;28;20811;-71
2023/05/13 07:41:59;;;;;;;4.83;4.33;;;14.00;99.90;;;;;;5034508;28;20177;-72
2023/05/13 07:44:25;;;;;;;4.43;4.03;;;14.10;99.90;;;;;;5034104;28;20190;-71
2023/05/13 07:46:52;;;;;;;5.43;5.03;;;14.10;99.90;;;;;;5034169;28;20234;-72
2023/05/13 07:49:18;;;;;;;6.50;4.93;;;14.10;99.90;;;;;;5033902;28;20193;-70
2023/05/13 07:51:44;;;;;;;5.33;4.50;;;13.90;99.90;;;;;;5033255;28;20499;-72
2023/05/13 07:54:09;;;;;;;5.13;4.73;;;13.70;99.90;;;;;;5033875;28;20431;-73
2023/05/13 07:56:36;;;;;;;5.13;4.73;;;13.80;99.90;;;;;;5033986;28;20168;-74
2023/05/13 07:59:02;;;;;;;6.17;4.77;;;14.30;99.90;;;;;;5034038;28;20181;-74
2023/05/13 08:01:28;;;;;;;4.87;4.37;;;14.10;99.90;;;;;;5034049;28;20412;-74
2023/05/13 08:03:54;;;;;;;5.23;4.73;;;14.20;99.90;;;;;;5023761;28;20232;-74
2023/05/13 08:06:19;;;;;;;4.87;4.40;;;14.60;99.90;;;;;;5021471;28;20973;-75
2023/05/13 08:08:45;;;;;;;7.63;3.87;;;14.60;99.90;;;;;;5023758;28;20548;-71
2023/05/13 08:11:11;;;;;;;6.37;4.87;;;14.40;99.90;;;;;;5024013;28;20641;-71
2023/05/13 08:13:37;;;;;;;5.83;4.70;;;14.40;99.90;;;;;;5019346;28;20317;-72
2023/05/13 08:16:03;;;;;;;5.23;4.30;;;14.30;99.90;;;;;;5014066;28;20180;-72
2023/05/13 08:18:29;;;;;;;4.67;4.27;;;14.40;99.90;;;;;;5013982;28;20812;-73
2023/05/13 08:20:54;;;;;;;5.40;4.90;;;14.70;99.90;;;;;;5008795;28;20172;-72
2023/05/13 08:23:20;;;;;;;4.87;4.47;;;14.90;99.90;;;;;;5015709;28;20930;-72
2023/05/13 08:25:45;;;;;;;5.17;4.67;;;14.90;99.90;;;;;;5025304;28;20273;-71
2023/05/13 08:28:11;;;;;;;5.93;5.33;;;14.90;99.90;;;;;;5013615;28;20580;-70
2023/05/13 08:30:39;;;;;;;5.40;4.80;;;14.30;99.90;;;;;;5018702;28;20232;-70
2023/05/13 08:33:05;;;;;;;5.60;5.17;;;14.00;99.90;;;;;;5025699;28;20201;-70
2023/05/13 08:35:31;;;;;;;5.10;4.60;;;13.90;99.90;;;;;;5013266;28;20424;-71
2023/05/13 08:37:56;;;;;;;7.50;5.10;;;14.40;99.90;;;;;;5013524;28;20365;-71
2023/05/13 08:40:22;;;;;;;5.63;5.13;;;14.90;99.90;;;;;;5013460;28;20895;-71
2023/05/13 08:42:51;;;;;;;6.77;5.57;;;15.20;99.90;;;;;;5013492;28;20169;-71
2023/05/13 08:45:19;;;;;;;5.23;4.73;;;15.30;99.90;;;;;;4995752;28;20202;-71
2023/05/13 08:48:13;;;;;;;5.17;3.90;;;15.20;99.90;;;;;;5013730;28;20902;-73
2023/05/13 08:50:40;;;;;;;5.43;4.93;;;15.20;99.90;;;;;;5021423;28;20583;-74
2023/05/13 08:53:06;;;;;;;5.67;5.17;;;14.90;99.90;;;;;;5032675;28;20405;-72
2023/05/13 08:55:32;;;;;;;6.53;4.70;;;14.70;99.90;;;;;;5032877;28;20423;-72
2023/05/13 08:57:57;;;;;;;5.50;4.23;;;14.40;99.90;;;;;;5033083;28;20407;-71
2023/05/13 09:00:23;;;;;;;6.17;5.07;;;14.00;99.90;;;;;;5033075;28;20221;-71
2023/05/13 09:02:49;;;;;;;5.53;5.03;;;14.00;99.90;;;;;;5015305;28;20177;-72
2023/05/13 09:05:16;;;;;;;4.90;4.40;;;14.00;99.90;;;;;;5032506;28;20284;-72
2023/05/13 09:07:42;;;;;;;5.47;5.07;;;14.30;99.90;;;;;;5031762;28;20413;-72
2023/05/13 09:10:09;;;;;;;5.30;4.90;;;14.50;99.90;;;;;;5032830;28;20456;-73
2023/05/13 09:12:55;;;;;;;4.83;4.43;;;14.30;99.90;;;;;;5032884;28;20174;-73
2023/05/13 09:15:25;;;;;;;5.47;5.07;;;14.20;99.90;;;;;;5032836;28;20442;-72
2023/05/13 09:18:13;;;;;;;4.70;4.30;;;14.00;99.90;;;;;;5015728;28;20455;-73
2023/05/13 09:20:38;;;;;;;6.17;5.33;;;14.20;99.90;;;;;;5035877;28;20431;-73
2023/05/13 09:23:09;;;;;;;6.10;5.07;;;14.20;99.90;;;;;;5036493;28;20904;-73
2023/05/13 09:25:38;;;;;;;5.10;4.70;;;14.40;99.90;;;;;;5036689;28;20679;-73
2023/05/13 09:28:06;;;;;;;5.20;4.47;;;14.50;99.90;;;;;;5037090;28;20440;-73
2023/05/13 09:30:41;;;;;;;4.60;4.20;;;14.80;99.90;;;;;;5036961;28;20471;-73
2023/05/13 09:33:12;;;;;;;4.10;3.80;;;14.60;99.90;;;;;;5036170;28;20946;-71
2023/05/13 09:35:53;;;;;;;6.97;5.07;;;14.60;99.90;;;;;;5036314;28;20205;-71
2023/05/13 09:38:27;;;;;;;4.63;3.73;;;14.60;99.90;;;;;;5036540;28;20454;-72
2023/05/13 09:40:55;;;;;;;4.53;3.97;;;14.90;99.90;;;;;;5036675;28;20414;-72
2023/05/13 09:43:25;;;;;;;4.90;4.20;;;15.10;99.90;;;;;;5018790;28;20497;-72
2023/05/13 09:45:56;;;;;;;4.37;4.07;;;15.40;99.90;;;;;;5036586;28;20459;-71
2023/05/13 09:48:25;;;;;;;5.60;4.30;;;15.70;99.90;;;;;;5018742;28;20402;-70
2023/05/13 09:50:52;;;;;;;4.90;4.50;;;15.70;99.90;;;;;;5035881;28;20441;-72
2023/05/13 09:53:20;;;;;;;4.43;4.03;;;15.50;99.90;;;;;;5018369;28;20421;-73
2023/05/13 09:55:47;;;;;;;5.10;4.60;;;15.50;99.90;;;;;;5018373;28;20479;-74
2023/05/13 09:58:13;;;;;;;4.40;4.00;;;15.10;99.90;;;;;;5020145;28;20926;-74
2023/05/13 10:00:40;;;;;;;4.73;4.40;;;15.40;99.90;;;;;;5016493;28;20412;-74
2023/05/13 10:03:06;;;;;;;4.50;3.90;;;15.50;99.90;;;;;;5016446;28;20177;-73
2023/05/13 10:05:32;;;;;;;4.93;4.57;;;15.90;99.90;;;;;;5016227;28;20433;-71
2023/05/13 10:08:00;;;;;;;4.30;3.90;;;16.00;99.90;;;;;;5016086;28;20410;-71
2023/05/13 10:10:31;;;;;;;4.67;4.27;;;16.10;99.90;;;;;;5016531;28;20449;-71
2023/05/13 10:13:07;;;;;;;4.53;4.13;;;16.30;99.90;;;;;;5016559;28;20387;-74
2023/05/13 10:15:33;;;;;;;4.97;4.47;;;16.30;99.90;;;;;;5061556;23;20484;-74
2023/05/13 10:18:00;;;;;;;3.97;3.57;;;16.40;99.90;;;;;;5055806;28;20405;-76
2023/05/13 10:20:26;;;;;;;5.20;4.30;;;16.40;99.90;;;;;;5055481;28;20415;-70
2023/05/13 10:22:53;;;;;;;4.60;4.20;;;15.80;99.90;;;;;;5055207;28;20410;-72
2023/05/13 10:25:19;;;;;;;4.83;4.40;;;15.40;99.90;;;;;;5055278;28;20429;-72
2023/05/13 10:27:46;;;;;;;4.00;3.60;;;15.70;99.90;;;;;;5055677;28;20405;-70
2023/05/13 10:30:12;;;;;;;4.53;4.13;;;15.90;99.90;;;;;;5035799;28;20446;-72
2023/05/13 10:32:38;;;;;;;3.50;3.20;;;16.00;99.90;;;;;;5035128;28;20414;-76
2023/05/13 10:35:16;;;;;;;3.10;2.80;;;15.90;99.90;;;;;;5035266;28;20508;-76
2023/05/13 10:38:07;;;;;;;3.20;2.90;;;15.90;99.90;;;;;;5035328;28;20846;-73
2023/05/13 10:40:45;;;;;;;2.67;2.47;;;16.20;99.90;;;;;;5035504;28;20484;-72
2023/05/13 10:43:19;;;;;;;2.80;2.60;;;16.20;99.90;;;;;;5036005;28;20394;-72
2023/05/13 10:45:54;;;;;;;3.10;2.80;;;16.30;99.90;;;;;;5035185;28;20428;-73
2023/05/13 10:48:21;;;;;;;4.67;2.83;;;15.90;99.90;;;;;;5035542;28;20396;-72
2023/05/13 10:50:53;;;;;;;5.00;4.60;;;15.80;99.90;;;;;;5046593;28;20482;-72
2023/05/13 10:53:30;;;;;;;5.10;4.70;;;15.50;99.90;;;;;;5054858;28;20409;-73
2023/05/13 10:55:58;;;;;;;5.00;4.57;;;15.30;99.90;;;;;;5055205;28;20418;-72
2023/05/13 10:58:31;;;;;;;5.17;4.77;;;15.10;99.90;;;;;;5035545;28;20499;-73
2023/05/13 11:01:27;;;;;;;4.80;4.40;;;15.30;99.90;;;;;;5035138;28;20411;-72
2023/05/13 11:03:53;;;;;;;5.60;5.10;;;15.00;99.90;;;;;;5035278;28;20399;-72
2023/05/13 11:06:22;;;;;;;5.70;5.20;;;15.10;99.90;;;;;;5034494;28;20798;-72
2023/05/13 11:08:50;;;;;;;5.17;4.77;;;15.10;99.90;;;;;;5034474;28;20435;-72
2023/05/13 11:11:21;;;;;;;5.77;5.27;;;15.50;99.90;;;;;;5034980;28;20405;-72
2023/05/13 11:13:55;;;;;;;5.50;5.00;;;15.60;99.90;;;;;;5034745;28;20405;-72
2023/05/13 11:16:24;;;;;;;6.37;5.00;;;15.60;99.90;;;;;;5034601;28;20486;-72
2023/05/13 11:18:51;;;;;;;5.57;5.07;;;16.00;99.90;;;;;;5034901;28;20455;-72
2023/05/13 11:21:28;;;;;;;4.93;4.53;;;16.20;99.90;;;;;;5050202;28;20910;-72
2023/05/13 11:23:59;;;;;;;5.37;4.93;;;16.00;99.90;;;;;;5054271;28;20381;-72
2023/05/13 11:26:25;;;;;;;5.27;4.87;;;15.60;99.90;;;;;;5054922;28;20408;-72
2023/05/13 11:29:03;;;;;;;6.60;5.13;;;15.90;99.90;;;;;;5054662;28;20403;-73
2023/05/13 11:31:46;;;;;;;4.17;3.87;;;16.00;99.90;;;;;;5054891;28;20232;-73
2023/05/13 11:34:20;;;;;;;5.97;5.40;;;16.20;99.90;;;;;;5054517;28;20385;-73
2023/05/13 11:36:51;;;;;;;5.13;4.73;;;16.30;99.90;;;;;;5053842;28;20457;-72
2023/05/13 11:39:19;;;;;;;5.40;4.90;;;16.40;99.90;;;;;;5054563;28;20441;-72
2023/05/13 11:41:56;;;;;;;4.90;4.40;;;16.00;99.90;;;;;;5053398;28;20782;-72
2023/05/13 11:44:23;;;;;;;4.93;4.53;;;16.10;99.90;;;;;;5054322;28;20424;-72
2023/05/13 11:46:59;;;;;;;4.60;4.20;;;16.20;99.90;;;;;;5054291;28;20461;-72
2023/05/13 11:49:45;;;;;;;4.57;4.13;;;16.10;99.90;;;;;;5016548;28;20962;-72
2023/05/13 11:52:15;;;;;;;4.70;4.30;;;15.80;99.90;;;;;;5013826;28;20401;-73
2023/05/13 11:54:52;;;;;;;5.67;4.10;;;15.50;99.90;;;;;;5014473;28;20410;-72
2023/05/13 11:57:19;;;;;;;4.37;4.00;;;15.50;99.90;;;;;;5014619;28;20381;-72
2023/05/13 12:00:03;;;;;;;5.13;4.63;;;15.80;99.90;;;;;;5014339;28;20409;-72
2023/05/13 12:02:32;;;;;;;5.27;4.80;;;15.60;99.90;;;;;;4996772;28;20796;-72
2023/05/13 12:05:06;;;;;;;5.40;4.73;;;15.50;99.90;;;;;;4996363;28;20437;-72
2023/05/13 12:07:33;;;;;;;4.23;3.93;;;15.20;99.90;;;;;;4996383;28;20978;-71
2023/05/13 12:10:00;;;;;;;4.27;3.90;;;15.40;99.90;;;;;;5013873;28;20461;-72
2023/05/13 12:12:27;;;;;;;5.43;4.93;;;15.80;99.90;;;;;;5014242;28;20824;-73
2023/05/13 12:14:55;;;;;;;4.20;3.90;;;15.70;99.90;;;;;;5013697;28;20442;-72
2023/05/13 12:17:21;;;;;;;4.20;3.63;;;15.80;99.90;;;;;;5013963;28;20820;-72
2023/05/13 12:20:05;;;;;;;4.40;4.00;;;16.00;99.90;;;;;;5017963;28;20417;-73
2023/05/13 12:22:32;;;;;;;4.23;3.93;;;16.10;99.90;;;;;;5050757;28;20170;-73
2023/05/13 12:25:00;;;;;;;3.77;3.47;;;15.90;99.90;;;;;;5031286;28;20975;-72
2023/05/13 12:27:26;;;;;;;5.83;3.43;;;15.80;99.90;;;;;;5033787;28;20408;-72
2023/05/13 12:29:55;;;;;;;4.53;4.10;;;15.70;99.90;;;;;;5033265;28;20815;-73
2023/05/13 12:32:24;;;;;;;4.23;3.83;;;15.70;99.90;;;;;;5034043;28;20407;-72
2023/05/13 12:34:50;;;;;;;7.03;4.20;;;15.70;99.90;;;;;;5033424;28;20429;-72
2023/05/13 12:37:16;;;;;;;4.97;4.53;;;16.10;99.90;;;;;;5032897;28;20446;-71
2023/05/13 12:39:43;;;;;;;5.20;4.70;;;16.40;99.90;;;;;;5033641;28;20406;-72
2023/05/13 12:42:16;;;;;;;4.67;4.27;;;16.60;99.90;;;;;;5033910;28;20455;-72
2023/05/13 12:44:45;;;;;;;5.30;4.10;;;16.60;99.90;;;;;;5034154;28;20459;-73
2023/05/13 12:47:12;;;;;;;4.40;4.00;;;16.40;99.90;;;;;;5033942;28;20966;-73
2023/05/13 12:49:59;;;;;;;4.20;3.90;;;16.50;99.90;;;;;;5034926;28;20437;-72